sensor_id;sensor_type;location;lat;lon;timestamp;temperature;humidity
66962;HTU21D;53897;51.126;5.868;2024-01-30T00:02:06;21.53;40.77
66962;HTU21D;53897;51.126;5.868;2024-01-30T00:04:32;21.51;40.74
66962;HTU21D;53897;51.126;5.868;2024-01-30T00:06:58;21.50;40.71
66962;HTU21D;53897;51.126;5.868;2024-01-30T00:09:23;21.48;40.68
66962;HTU21D;53897;51.126;5.868;2024-01-30T00:11:49;21.46;40.66
66962;HTU21D;53897;51.126;5.868;2024-01-30T00:14:15;21.46;40.65
66962;HTU21D;53897;51.126;5.868;2024-01-30T00:16:40;21.44;40.63
66962;HTU21D;53897;51.126;5.868;2024-01-30T00:19:06;21.43;40.61
66962;HTU21D;53897;51.126;5.868;2024-01-30T00:21:34;21.40;40.60
66962;HTU21D;53897;51.126;5.868;2024-01-30T00:23:59;21.39;40.59
66962;HTU21D;53897;51.126;5.868;2024-01-30T00:26:25;21.37;40.58
66962;HTU21D;53897;51.126;5.868;2024-01-30T00:28:51;21.36;40.56
66962;HTU21D;53897;51.126;5.868;2024-01-30T00:31:17;21.35;40.55
66962;HTU21D;53897;51.126;5.868;2024-01-30T00:33:42;21.34;40.52
66962;HTU21D;53897;51.126;5.868;2024-01-30T00:36:09;21.31;40.51
66962;HTU21D;53897;51.126;5.868;2024-01-30T00:38:36;21.30;40.50
66962;HTU21D;53897;51.126;5.868;2024-01-30T00:41:03;21.27;40.46
66962;HTU21D;53897;51.126;5.868;2024-01-30T00:43:28;21.27;40.47
66962;HTU21D;53897;51.126;5.868;2024-01-30T00:45:55;21.25;40.45
66962;HTU21D;53897;51.126;5.868;2024-01-30T00:48:21;21.25;40.43
66962;HTU21D;53897;51.126;5.868;2024-01-30T00:50:46;21.21;40.43
66962;HTU21D;53897;51.126;5.868;2024-01-30T00:53:12;21.19;40.42
66962;HTU21D;53897;51.126;5.868;2024-01-30T00:55:38;21.19;40.41
66962;HTU21D;53897;51.126;5.868;2024-01-30T00:58:04;21.17;40.39
66962;HTU21D;53897;51.126;5.868;2024-01-30T01:00:31;21.16;40.41
66962;HTU21D;53897;51.126;5.868;2024-01-30T01:03:00;21.14;40.36
66962;HTU21D;53897;51.126;5.868;2024-01-30T01:05:26;21.14;40.33
66962;HTU21D;53897;51.126;5.868;2024-01-30T01:07:52;21.11;40.36
66962;HTU21D;53897;51.126;5.868;2024-01-30T01:10:18;21.08;40.36
66962;HTU21D;53897;51.126;5.868;2024-01-30T01:12:45;21.07;40.38
66962;HTU21D;53897;51.126;5.868;2024-01-30T01:15:11;21.07;40.36
66962;HTU21D;53897;51.126;5.868;2024-01-30T01:17:38;21.04;40.36
66962;HTU21D;53897;51.126;5.868;2024-01-30T01:20:06;21.04;40.38
66962;HTU21D;53897;51.126;5.868;2024-01-30T01:22:33;21.02;40.36
66962;HTU21D;53897;51.126;5.868;2024-01-30T01:25:00;21.00;40.39
66962;HTU21D;53897;51.126;5.868;2024-01-30T01:27:26;20.99;40.37
66962;HTU21D;53897;51.126;5.868;2024-01-30T01:29:52;20.98;40.37
66962;HTU21D;53897;51.126;5.868;2024-01-30T01:32:19;20.96;40.35
66962;HTU21D;53897;51.126;5.868;2024-01-30T01:34:45;20.95;40.34
66962;HTU21D;53897;51.126;5.868;2024-01-30T01:37:10;20.93;40.33
66962;HTU21D;53897;51.126;5.868;2024-01-30T01:39:36;20.92;40.32
66962;HTU21D;53897;51.126;5.868;2024-01-30T01:42:02;20.90;40.30
66962;HTU21D;53897;51.126;5.868;2024-01-30T01:44:28;20.89;40.31
66962;HTU21D;53897;51.126;5.868;2024-01-30T01:46:55;20.88;40.30
66962;HTU21D;53897;51.126;5.868;2024-01-30T01:49:25;20.86;40.30
66962;HTU21D;53897;51.126;5.868;2024-01-30T01:51:55;20.86;40.33
66962;HTU21D;53897;51.126;5.868;2024-01-30T01:54:24;20.83;40.30
66962;HTU21D;53897;51.126;5.868;2024-01-30T01:56:52;20.83;40.30
66962;HTU21D;53897;51.126;5.868;2024-01-30T01:59:20;20.80;40.26
66962;HTU21D;53897;51.126;5.868;2024-01-30T02:01:46;20.80;40.28
66962;HTU21D;53897;51.126;5.868;2024-01-30T02:04:15;20.79;40.25
66962;HTU21D;53897;51.126;5.868;2024-01-30T02:06:43;20.78;40.26
66962;HTU21D;53897;51.126;5.868;2024-01-30T02:09:09;20.76;40.21
66962;HTU21D;53897;51.126;5.868;2024-01-30T02:11:35;20.75;40.25
66962;HTU21D;53897;51.126;5.868;2024-01-30T02:14:03;20.73;40.25
66962;HTU21D;53897;51.126;5.868;2024-01-30T02:16:29;20.72;40.21
66962;HTU21D;53897;51.126;5.868;2024-01-30T02:18:55;20.71;40.20
66962;HTU21D;53897;51.126;5.868;2024-01-30T02:21:24;20.71;40.18
66962;HTU21D;53897;51.126;5.868;2024-01-30T02:23:50;20.69;40.18
66962;HTU21D;53897;51.126;5.868;2024-01-30T02:26:17;20.68;40.16
66962;HTU21D;53897;51.126;5.868;2024-01-30T02:28:43;20.66;40.14
66962;HTU21D;53897;51.126;5.868;2024-01-30T02:31:08;20.65;40.13
66962;HTU21D;53897;51.126;5.868;2024-01-30T02:33:34;20.64;40.13
66962;HTU21D;53897;51.126;5.868;2024-01-30T02:36:00;20.63;40.12
66962;HTU21D;53897;51.126;5.868;2024-01-30T02:38:26;20.62;40.12
66962;HTU21D;53897;51.126;5.868;2024-01-30T02:40:52;20.61;40.10
66962;HTU21D;53897;51.126;5.868;2024-01-30T02:43:18;20.61;40.07
66962;HTU21D;53897;51.126;5.868;2024-01-30T02:45:44;20.60;40.06
66962;HTU21D;53897;51.126;5.868;2024-01-30T02:48:10;20.58;40.04
66962;HTU21D;53897;51.126;5.868;2024-01-30T02:50:36;20.57;40.06
66962;HTU21D;53897;51.126;5.868;2024-01-30T02:53:01;20.57;40.04
66962;HTU21D;53897;51.126;5.868;2024-01-30T02:55:27;20.56;40.04
66962;HTU21D;53897;51.126;5.868;2024-01-30T02:57:53;20.54;40.03
66962;HTU21D;53897;51.126;5.868;2024-01-30T03:00:19;20.54;40.04
66962;HTU21D;53897;51.126;5.868;2024-01-30T03:02:45;20.51;39.97
66962;HTU21D;53897;51.126;5.868;2024-01-30T03:05:11;20.51;39.97
66962;HTU21D;53897;51.126;5.868;2024-01-30T03:07:37;20.50;39.99
66962;HTU21D;53897;51.126;5.868;2024-01-30T03:10:04;20.49;40.00
66962;HTU21D;53897;51.126;5.868;2024-01-30T03:12:32;20.48;40.02
66962;HTU21D;53897;51.126;5.868;2024-01-30T03:14:58;20.46;40.04
66962;HTU21D;53897;51.126;5.868;2024-01-30T03:17:23;20.46;40.04
66962;HTU21D;53897;51.126;5.868;2024-01-30T03:19:50;20.44;40.06
66962;HTU21D;53897;51.126;5.868;2024-01-30T03:22:16;20.42;40.04
66962;HTU21D;53897;51.126;5.868;2024-01-30T03:24:41;20.42;40.05
66962;HTU21D;53897;51.126;5.868;2024-01-30T03:27:08;20.40;40.07
66962;HTU21D;53897;51.126;5.868;2024-01-30T03:29:33;20.39;40.08
66962;HTU21D;53897;51.126;5.868;2024-01-30T03:31:59;20.37;40.10
66962;HTU21D;53897;51.126;5.868;2024-01-30T03:34:25;20.36;40.10
66962;HTU21D;53897;51.126;5.868;2024-01-30T03:36:51;20.35;40.10
66962;HTU21D;53897;51.126;5.868;2024-01-30T03:39:16;20.34;40.10
66962;HTU21D;53897;51.126;5.868;2024-01-30T03:41:43;20.34;40.11
66962;HTU21D;53897;51.126;5.868;2024-01-30T03:44:10;20.33;40.13
66962;HTU21D;53897;51.126;5.868;2024-01-30T03:46:36;20.31;40.12
66962;HTU21D;53897;51.126;5.868;2024-01-30T03:49:02;20.29;40.11
66962;HTU21D;53897;51.126;5.868;2024-01-30T03:51:28;20.28;40.10
66962;HTU21D;53897;51.126;5.868;2024-01-30T03:53:53;20.28;40.10
66962;HTU21D;53897;51.126;5.868;2024-01-30T03:56:19;20.27;40.10
66962;HTU21D;53897;51.126;5.868;2024-01-30T03:58:45;20.24;40.13
66962;HTU21D;53897;51.126;5.868;2024-01-30T04:01:14;20.22;40.13
66962;HTU21D;53897;51.126;5.868;2024-01-30T04:03:41;20.24;40.13
66962;HTU21D;53897;51.126;5.868;2024-01-30T04:06:07;20.22;40.15
66962;HTU21D;53897;51.126;5.868;2024-01-30T04:08:33;20.21;40.15
66962;HTU21D;53897;51.126;5.868;2024-01-30T04:11:06;20.19;40.16
66962;HTU21D;53897;51.126;5.868;2024-01-30T04:13:32;20.18;40.14
66962;HTU21D;53897;51.126;5.868;2024-01-30T04:15:59;20.17;40.17
66962;HTU21D;53897;51.126;5.868;2024-01-30T04:18:27;20.17;40.20
66962;HTU21D;53897;51.126;5.868;2024-01-30T04:20:53;20.15;40.17
66962;HTU21D;53897;51.126;5.868;2024-01-30T04:23:19;20.14;40.18
66962;HTU21D;53897;51.126;5.868;2024-01-30T04:25:44;20.13;40.17
66962;HTU21D;53897;51.126;5.868;2024-01-30T04:28:10;20.14;40.17
66962;HTU21D;53897;51.126;5.868;2024-01-30T04:30:37;20.13;40.17
66962;HTU21D;53897;51.126;5.868;2024-01-30T04:33:03;20.12;40.18
66962;HTU21D;53897;51.126;5.868;2024-01-30T04:35:29;20.12;40.17
66962;HTU21D;53897;51.126;5.868;2024-01-30T04:37:55;20.10;40.15
66962;HTU21D;53897;51.126;5.868;2024-01-30T04:40:21;20.10;40.16
66962;HTU21D;53897;51.126;5.868;2024-01-30T04:42:47;20.09;40.16
66962;HTU21D;53897;51.126;5.868;2024-01-30T04:45:13;20.09;40.19
66962;HTU21D;53897;51.126;5.868;2024-01-30T04:47:38;20.07;40.18
66962;HTU21D;53897;51.126;5.868;2024-01-30T04:50:09;20.06;40.17
66962;HTU21D;53897;51.126;5.868;2024-01-30T04:52:35;20.05;40.17
66962;HTU21D;53897;51.126;5.868;2024-01-30T04:55:01;20.05;40.16
66962;HTU21D;53897;51.126;5.868;2024-01-30T04:57:27;20.04;40.17
66962;HTU21D;53897;51.126;5.868;2024-01-30T04:59:53;20.03;40.15
66962;HTU21D;53897;51.126;5.868;2024-01-30T05:02:19;20.03;40.15
66962;HTU21D;53897;51.126;5.868;2024-01-30T05:04:44;20.03;40.10
66962;HTU21D;53897;51.126;5.868;2024-01-30T05:07:10;20.03;40.09
66962;HTU21D;53897;51.126;5.868;2024-01-30T05:09:36;20.01;40.10
66962;HTU21D;53897;51.126;5.868;2024-01-30T05:12:02;20.01;40.13
66962;HTU21D;53897;51.126;5.868;2024-01-30T05:14:28;20.00;40.13
66962;HTU21D;53897;51.126;5.868;2024-01-30T05:16:53;19.98;40.14
66962;HTU21D;53897;51.126;5.868;2024-01-30T05:19:19;19.99;40.13
66962;HTU21D;53897;51.126;5.868;2024-01-30T05:21:45;19.98;40.13
66962;HTU21D;53897;51.126;5.868;2024-01-30T05:24:11;19.97;40.13
66962;HTU21D;53897;51.126;5.868;2024-01-30T05:26:37;19.96;40.12
66962;HTU21D;53897;51.126;5.868;2024-01-30T05:29:03;19.97;40.09
66962;HTU21D;53897;51.126;5.868;2024-01-30T05:31:29;19.95;40.09
66962;HTU21D;53897;51.126;5.868;2024-01-30T05:33:55;19.95;40.08
66962;HTU21D;53897;51.126;5.868;2024-01-30T05:36:20;19.96;40.07
66962;HTU21D;53897;51.126;5.868;2024-01-30T05:38:47;19.95;40.06
66962;HTU21D;53897;51.126;5.868;2024-01-30T05:41:13;19.94;40.05
66962;HTU21D;53897;51.126;5.868;2024-01-30T05:43:38;19.94;40.06
66962;HTU21D;53897;51.126;5.868;2024-01-30T05:46:04;19.94;40.06
66962;HTU21D;53897;51.126;5.868;2024-01-30T05:48:30;19.92;40.04
66962;HTU21D;53897;51.126;5.868;2024-01-30T05:50:56;19.91;40.01
66962;HTU21D;53897;51.126;5.868;2024-01-30T05:53:22;19.91;39.97
66962;HTU21D;53897;51.126;5.868;2024-01-30T05:55:47;19.89;39.95
66962;HTU21D;53897;51.126;5.868;2024-01-30T05:58:13;19.90;39.96
66962;HTU21D;53897;51.126;5.868;2024-01-30T06:00:39;19.89;40.01
66962;HTU21D;53897;51.126;5.868;2024-01-30T06:03:04;19.89;40.04
66962;HTU21D;53897;51.126;5.868;2024-01-30T06:05:30;19.87;40.13
66962;HTU21D;53897;51.126;5.868;2024-01-30T06:07:56;19.85;40.22
66962;HTU21D;53897;51.126;5.868;2024-01-30T06:10:22;19.85;40.29
66962;HTU21D;53897;51.126;5.868;2024-01-30T06:12:47;19.86;40.35
66962;HTU21D;53897;51.126;5.868;2024-01-30T06:15:13;19.86;40.41
66962;HTU21D;53897;51.126;5.868;2024-01-30T06:17:39;19.88;40.46
66962;HTU21D;53897;51.126;5.868;2024-01-30T06:20:06;19.89;40.51
66962;HTU21D;53897;51.126;5.868;2024-01-30T06:22:32;19.91;40.55
66962;HTU21D;53897;51.126;5.868;2024-01-30T06:24:58;19.94;40.59
66962;HTU21D;53897;51.126;5.868;2024-01-30T06:27:23;19.96;40.62
66962;HTU21D;53897;51.126;5.868;2024-01-30T06:29:49;19.96;40.66
66962;HTU21D;53897;51.126;5.868;2024-01-30T06:32:15;19.99;40.69
66962;HTU21D;53897;51.126;5.868;2024-01-30T06:34:41;20.01;40.74
66962;HTU21D;53897;51.126;5.868;2024-01-30T06:37:09;20.01;40.75
66962;HTU21D;53897;51.126;5.868;2024-01-30T06:39:34;20.03;40.77
66962;HTU21D;53897;51.126;5.868;2024-01-30T06:42:00;20.05;40.79
66962;HTU21D;53897;51.126;5.868;2024-01-30T06:44:26;20.10;40.82
66962;HTU21D;53897;51.126;5.868;2024-01-30T06:46:51;20.11;40.84
66962;HTU21D;53897;51.126;5.868;2024-01-30T06:49:17;20.12;40.87
66962;HTU21D;53897;51.126;5.868;2024-01-30T06:51:43;20.15;40.91
66962;HTU21D;53897;51.126;5.868;2024-01-30T06:54:09;20.18;40.95
66962;HTU21D;53897;51.126;5.868;2024-01-30T06:56:34;20.20;40.97
66962;HTU21D;53897;51.126;5.868;2024-01-30T06:59:01;20.22;41.00
66962;HTU21D;53897;51.126;5.868;2024-01-30T07:01:29;20.26;41.07
66962;HTU21D;53897;51.126;5.868;2024-01-30T07:03:55;20.29;41.19
66962;HTU21D;53897;51.126;5.868;2024-01-30T07:06:21;20.31;41.23
66962;HTU21D;53897;51.126;5.868;2024-01-30T07:08:49;20.32;41.29
66962;HTU21D;53897;51.126;5.868;2024-01-30T07:11:21;20.34;41.33
66962;HTU21D;53897;51.126;5.868;2024-01-30T07:13:48;20.36;41.39
66962;HTU21D;53897;51.126;5.868;2024-01-30T07:16:14;20.40;41.51
66962;HTU21D;53897;51.126;5.868;2024-01-30T07:18:40;20.42;41.66
66962;HTU21D;53897;51.126;5.868;2024-01-30T07:21:06;20.44;41.71
66962;HTU21D;53897;51.126;5.868;2024-01-30T07:23:32;20.46;41.74
66962;HTU21D;53897;51.126;5.868;2024-01-30T07:25:59;20.49;41.75
66962;HTU21D;53897;51.126;5.868;2024-01-30T07:28:25;20.53;41.76
66962;HTU21D;53897;51.126;5.868;2024-01-30T07:30:51;20.55;41.78
66962;HTU21D;53897;51.126;5.868;2024-01-30T07:33:17;20.58;41.78
66962;HTU21D;53897;51.126;5.868;2024-01-30T07:35:43;20.59;41.78
66962;HTU21D;53897;51.126;5.868;2024-01-30T07:38:09;20.60;41.74
66962;HTU21D;53897;51.126;5.868;2024-01-30T07:40:34;20.63;41.67
66962;HTU21D;53897;51.126;5.868;2024-01-30T07:43:00;20.63;41.69
66962;HTU21D;53897;51.126;5.868;2024-01-30T07:45:26;20.65;41.74
66962;HTU21D;53897;51.126;5.868;2024-01-30T07:47:57;20.66;41.81
66962;HTU21D;53897;51.126;5.868;2024-01-30T07:50:23;20.68;41.85
66962;HTU21D;53897;51.126;5.868;2024-01-30T07:52:49;20.72;41.90
66962;HTU21D;53897;51.126;5.868;2024-01-30T07:55:16;20.73;41.93
66962;HTU21D;53897;51.126;5.868;2024-01-30T07:57:42;20.76;41.95
66962;HTU21D;53897;51.126;5.868;2024-01-30T08:00:08;20.78;41.95
66962;HTU21D;53897;51.126;5.868;2024-01-30T08:02:34;20.81;41.97
66962;HTU21D;53897;51.126;5.868;2024-01-30T08:05:00;20.84;41.99
66962;HTU21D;53897;51.126;5.868;2024-01-30T08:07:26;20.88;41.98
66962;HTU21D;53897;51.126;5.868;2024-01-30T08:09:51;20.90;41.97
66962;HTU21D;53897;51.126;5.868;2024-01-30T08:12:17;20.92;41.94
66962;HTU21D;53897;51.126;5.868;2024-01-30T08:14:43;20.94;41.94
66962;HTU21D;53897;51.126;5.868;2024-01-30T08:17:09;20.98;41.84
66962;HTU21D;53897;51.126;5.868;2024-01-30T08:19:34;21.00;41.76
66962;HTU21D;53897;51.126;5.868;2024-01-30T08:22:00;21.02;41.69
66962;HTU21D;53897;51.126;5.868;2024-01-30T08:24:26;21.04;41.65
66962;HTU21D;53897;51.126;5.868;2024-01-30T08:26:51;21.05;41.62
66962;HTU21D;53897;51.126;5.868;2024-01-30T08:29:17;21.08;41.63
66962;HTU21D;53897;51.126;5.868;2024-01-30T08:31:43;21.09;41.65
66962;HTU21D;53897;51.126;5.868;2024-01-30T08:34:09;21.11;41.51
66962;HTU21D;53897;51.126;5.868;2024-01-30T08:36:36;21.11;41.42
66962;HTU21D;53897;51.126;5.868;2024-01-30T08:39:02;21.13;41.36
66962;HTU21D;53897;51.126;5.868;2024-01-30T08:41:28;21.14;41.31
66962;HTU21D;53897;51.126;5.868;2024-01-30T08:43:54;21.15;41.30
66962;HTU21D;53897;51.126;5.868;2024-01-30T08:46:19;21.15;41.29
66962;HTU21D;53897;51.126;5.868;2024-01-30T08:48:46;21.14;41.29
66962;HTU21D;53897;51.126;5.868;2024-01-30T08:51:12;21.16;41.30
66962;HTU21D;53897;51.126;5.868;2024-01-30T08:53:37;21.16;41.29
66962;HTU21D;53897;51.126;5.868;2024-01-30T08:56:03;21.17;41.31
66962;HTU21D;53897;51.126;5.868;2024-01-30T08:58:30;21.15;41.40
66962;HTU21D;53897;51.126;5.868;2024-01-30T09:00:56;21.16;41.42
66962;HTU21D;53897;51.126;5.868;2024-01-30T09:03:21;21.16;41.47
66962;HTU21D;53897;51.126;5.868;2024-01-30T09:05:47;21.18;41.49
66962;HTU21D;53897;51.126;5.868;2024-01-30T09:08:13;21.18;41.49
66962;HTU21D;53897;51.126;5.868;2024-01-30T09:10:39;21.19;41.55
66962;HTU21D;53897;51.126;5.868;2024-01-30T09:13:04;21.20;41.59
66962;HTU21D;53897;51.126;5.868;2024-01-30T09:15:30;21.21;41.64
66962;HTU21D;53897;51.126;5.868;2024-01-30T09:17:56;21.22;41.70
66962;HTU21D;53897;51.126;5.868;2024-01-30T09:20:21;21.24;41.75
66962;HTU21D;53897;51.126;5.868;2024-01-30T09:22:48;21.28;41.76
66962;HTU21D;53897;51.126;5.868;2024-01-30T09:25:15;21.30;41.78
66962;HTU21D;53897;51.126;5.868;2024-01-30T09:27:40;21.33;41.77
66962;HTU21D;53897;51.126;5.868;2024-01-30T09:30:07;21.32;41.74
66962;HTU21D;53897;51.126;5.868;2024-01-30T09:32:32;21.34;41.55
66962;HTU21D;53897;51.126;5.868;2024-01-30T09:34:58;21.36;41.39
66962;HTU21D;53897;51.126;5.868;2024-01-30T09:37:24;21.36;41.31
66962;HTU21D;53897;51.126;5.868;2024-01-30T09:39:50;21.35;41.29
66962;HTU21D;53897;51.126;5.868;2024-01-30T09:44:51;21.32;41.32
66962;HTU21D;53897;51.126;5.868;2024-01-30T09:47:17;21.31;41.41
66962;HTU21D;53897;51.126;5.868;2024-01-30T09:49:44;21.30;41.45
66962;HTU21D;53897;51.126;5.868;2024-01-30T09:52:10;21.31;41.52
66962;HTU21D;53897;51.126;5.868;2024-01-30T09:54:38;21.32;41.52
66962;HTU21D;53897;51.126;5.868;2024-01-30T09:57:04;21.31;41.55
66962;HTU21D;53897;51.126;5.868;2024-01-30T09:59:31;21.31;41.64
66962;HTU21D;53897;51.126;5.868;2024-01-30T10:01:57;21.32;41.63
66962;HTU21D;53897;51.126;5.868;2024-01-30T10:04:23;21.30;41.72
66962;HTU21D;53897;51.126;5.868;2024-01-30T10:06:49;21.28;41.83
66962;HTU21D;53897;51.126;5.868;2024-01-30T10:09:16;21.28;41.93
66962;HTU21D;53897;51.126;5.868;2024-01-30T10:11:41;21.25;42.01
66962;HTU21D;53897;51.126;5.868;2024-01-30T10:14:07;21.24;42.08
66962;HTU21D;53897;51.126;5.868;2024-01-30T10:16:35;21.25;42.13
66962;HTU21D;53897;51.126;5.868;2024-01-30T10:19:00;21.28;42.15
66962;HTU21D;53897;51.126;5.868;2024-01-30T10:21:26;21.32;42.16
66962;HTU21D;53897;51.126;5.868;2024-01-30T10:23:52;21.36;42.14
66962;HTU21D;53897;51.126;5.868;2024-01-30T10:26:19;21.38;42.13
66962;HTU21D;53897;51.126;5.868;2024-01-30T10:28:45;21.43;42.15
66962;HTU21D;53897;51.126;5.868;2024-01-30T10:31:10;21.47;42.21
66962;HTU21D;53897;51.126;5.868;2024-01-30T10:33:36;21.49;42.21
66962;HTU21D;53897;51.126;5.868;2024-01-30T10:36:04;21.51;42.19
66962;HTU21D;53897;51.126;5.868;2024-01-30T10:38:32;21.57;42.16
66962;HTU21D;53897;51.126;5.868;2024-01-30T10:40:59;21.58;42.13
66962;HTU21D;53897;51.126;5.868;2024-01-30T10:43:35;21.61;42.10
66962;HTU21D;53897;51.126;5.868;2024-01-30T10:48:43;21.66;42.03
66962;HTU21D;53897;51.126;5.868;2024-01-30T10:51:14;21.67;41.92
66962;HTU21D;53897;51.126;5.868;2024-01-30T10:53:41;21.68;41.92
66962;HTU21D;53897;51.126;5.868;2024-01-30T10:56:10;21.70;41.93
66962;HTU21D;53897;51.126;5.868;2024-01-30T10:58:36;21.72;41.90
66962;HTU21D;53897;51.126;5.868;2024-01-30T11:01:03;21.73;41.92
66962;HTU21D;53897;51.126;5.868;2024-01-30T11:03:30;21.76;41.96
66962;HTU21D;53897;51.126;5.868;2024-01-30T11:06:01;21.77;41.94
66962;HTU21D;53897;51.126;5.868;2024-01-30T11:08:27;21.80;41.93
66962;HTU21D;53897;51.126;5.868;2024-01-30T11:10:56;21.81;41.97
66962;HTU21D;53897;51.126;5.868;2024-01-30T11:13:29;21.82;42.00
66962;HTU21D;53897;51.126;5.868;2024-01-30T11:15:55;21.84;42.00
66962;HTU21D;53897;51.126;5.868;2024-01-30T11:18:29;21.87;41.97
66962;HTU21D;53897;51.126;5.868;2024-01-30T11:21:01;21.88;41.95
66962;HTU21D;53897;51.126;5.868;2024-01-30T11:23:33;21.90;41.91
66962;HTU21D;53897;51.126;5.868;2024-01-30T11:26:00;21.90;41.90
66962;HTU21D;53897;51.126;5.868;2024-01-30T11:28:32;21.92;41.84
66962;HTU21D;53897;51.126;5.868;2024-01-30T11:31:03;21.94;41.90
66962;HTU21D;53897;51.126;5.868;2024-01-30T11:33:30;21.95;41.95
66962;HTU21D;53897;51.126;5.868;2024-01-30T11:36:00;21.96;41.95
66962;HTU21D;53897;51.126;5.868;2024-01-30T11:38:27;21.96;41.93
66962;HTU21D;53897;51.126;5.868;2024-01-30T11:40:56;21.98;41.87
66962;HTU21D;53897;51.126;5.868;2024-01-30T11:43:23;22.01;41.87
66962;HTU21D;53897;51.126;5.868;2024-01-30T11:45:49;22.02;41.86
66962;HTU21D;53897;51.126;5.868;2024-01-30T11:48:15;22.04;41.85
66962;HTU21D;53897;51.126;5.868;2024-01-30T11:50:41;22.06;41.83
66962;HTU21D;53897;51.126;5.868;2024-01-30T11:53:07;22.08;41.81
66962;HTU21D;53897;51.126;5.868;2024-01-30T11:55:33;22.08;41.80
66962;HTU21D;53897;51.126;5.868;2024-01-30T11:58:02;22.10;41.79
66962;HTU21D;53897;51.126;5.868;2024-01-30T12:00:27;22.10;41.77
66962;HTU21D;53897;51.126;5.868;2024-01-30T12:02:55;22.12;41.74
66962;HTU21D;53897;51.126;5.868;2024-01-30T12:05:22;22.12;41.65
66962;HTU21D;53897;51.126;5.868;2024-01-30T12:07:48;22.14;41.54
66962;HTU21D;53897;51.126;5.868;2024-01-30T12:10:15;22.16;41.49
66962;HTU21D;53897;51.126;5.868;2024-01-30T12:12:44;22.14;41.43
66962;HTU21D;53897;51.126;5.868;2024-01-30T12:15:11;22.16;41.42
66962;HTU21D;53897;51.126;5.868;2024-01-30T12:17:37;22.13;41.41
66962;HTU21D;53897;51.126;5.868;2024-01-30T12:20:13;22.13;41.38
66962;HTU21D;53897;51.126;5.868;2024-01-30T12:22:44;22.12;41.14
66962;HTU21D;53897;51.126;5.868;2024-01-30T12:25:12;22.09;40.97
66962;HTU21D;53897;51.126;5.868;2024-01-30T12:27:39;22.07;41.03
66962;HTU21D;53897;51.126;5.868;2024-01-30T12:30:10;22.04;41.15
66962;HTU21D;53897;51.126;5.868;2024-01-30T12:32:37;21.98;41.26
66962;HTU21D;53897;51.126;5.868;2024-01-30T12:35:08;21.97;41.36
66962;HTU21D;53897;51.126;5.868;2024-01-30T12:37:34;21.98;41.30
66962;HTU21D;53897;51.126;5.868;2024-01-30T12:40:01;21.97;41.15
66962;HTU21D;53897;51.126;5.868;2024-01-30T12:42:27;21.97;41.08
66962;HTU21D;53897;51.126;5.868;2024-01-30T12:44:53;21.93;41.17
66962;HTU21D;53897;51.126;5.868;2024-01-30T12:47:21;21.90;41.29
66962;HTU21D;53897;51.126;5.868;2024-01-30T12:49:47;21.89;41.32
66962;HTU21D;53897;51.126;5.868;2024-01-30T12:52:16;21.91;41.35
66962;HTU21D;53897;51.126;5.868;2024-01-30T12:54:41;21.92;41.34
66962;HTU21D;53897;51.126;5.868;2024-01-30T12:57:07;21.93;41.33
66962;HTU21D;53897;51.126;5.868;2024-01-30T12:59:33;21.95;41.37
66962;HTU21D;53897;51.126;5.868;2024-01-30T13:02:01;21.96;41.38
66962;HTU21D;53897;51.126;5.868;2024-01-30T13:04:27;21.98;41.41
66962;HTU21D;53897;51.126;5.868;2024-01-30T13:06:53;21.99;41.45
66962;HTU21D;53897;51.126;5.868;2024-01-30T13:09:20;22.01;41.50
66962;HTU21D;53897;51.126;5.868;2024-01-30T13:11:46;22.03;41.50
66962;HTU21D;53897;51.126;5.868;2024-01-30T13:14:11;22.06;41.56
66962;HTU21D;53897;51.126;5.868;2024-01-30T13:16:37;22.07;41.61
66962;HTU21D;53897;51.126;5.868;2024-01-30T13:19:03;22.08;41.62
66962;HTU21D;53897;51.126;5.868;2024-01-30T13:21:29;22.11;41.54
66962;HTU21D;53897;51.126;5.868;2024-01-30T13:23:55;22.11;41.54
66962;HTU21D;53897;51.126;5.868;2024-01-30T13:26:21;22.12;41.52
66962;HTU21D;53897;51.126;5.868;2024-01-30T13:28:47;22.16;41.53
66962;HTU21D;53897;51.126;5.868;2024-01-30T13:31:14;22.17;41.53
66962;HTU21D;53897;51.126;5.868;2024-01-30T13:33:41;22.18;41.55
66962;HTU21D;53897;51.126;5.868;2024-01-30T13:36:11;22.20;41.55
66962;HTU21D;53897;51.126;5.868;2024-01-30T13:38:37;22.20;41.55
66962;HTU21D;53897;51.126;5.868;2024-01-30T13:41:03;22.22;41.49
66962;HTU21D;53897;51.126;5.868;2024-01-30T13:43:29;22.23;41.45
66962;HTU21D;53897;51.126;5.868;2024-01-30T13:45:55;22.25;41.44
66962;HTU21D;53897;51.126;5.868;2024-01-30T13:48:21;22.24;41.41
66962;HTU21D;53897;51.126;5.868;2024-01-30T13:50:47;22.26;41.40
66962;HTU21D;53897;51.126;5.868;2024-01-30T13:53:13;22.28;41.39
66962;HTU21D;53897;51.126;5.868;2024-01-30T13:55:39;22.28;41.37
66962;HTU21D;53897;51.126;5.868;2024-01-30T13:58:06;22.29;41.35
66962;HTU21D;53897;51.126;5.868;2024-01-30T14:00:33;22.31;41.32
66962;HTU21D;53897;51.126;5.868;2024-01-30T14:02:59;22.31;41.30
66962;HTU21D;53897;51.126;5.868;2024-01-30T14:05:26;22.33;41.29
66962;HTU21D;53897;51.126;5.868;2024-01-30T14:07:53;22.33;41.27
66962;HTU21D;53897;51.126;5.868;2024-01-30T14:10:19;22.34;41.26
66962;HTU21D;53897;51.126;5.868;2024-01-30T14:12:46;22.36;41.25
66962;HTU21D;53897;51.126;5.868;2024-01-30T14:15:13;22.36;41.23
66962;HTU21D;53897;51.126;5.868;2024-01-30T14:17:41;22.37;41.20
66962;HTU21D;53897;51.126;5.868;2024-01-30T14:20:07;22.36;41.19
66962;HTU21D;53897;51.126;5.868;2024-01-30T14:22:34;22.39;41.07
66962;HTU21D;53897;51.126;5.868;2024-01-30T14:25:03;22.38;41.10
66962;HTU21D;53897;51.126;5.868;2024-01-30T14:27:30;22.39;41.05
66962;HTU21D;53897;51.126;5.868;2024-01-30T14:29:56;22.39;41.07
66962;HTU21D;53897;51.126;5.868;2024-01-30T14:32:23;22.41;41.08
66962;HTU21D;53897;51.126;5.868;2024-01-30T14:34:50;22.41;41.07
66962;HTU21D;53897;51.126;5.868;2024-01-30T14:37:16;22.40;41.12
66962;HTU21D;53897;51.126;5.868;2024-01-30T14:39:42;22.40;41.13
66962;HTU21D;53897;51.126;5.868;2024-01-30T14:42:08;22.41;41.22
66962;HTU21D;53897;51.126;5.868;2024-01-30T14:44:33;22.40;41.24
66962;HTU21D;53897;51.126;5.868;2024-01-30T14:47:00;22.40;41.26
66962;HTU21D;53897;51.126;5.868;2024-01-30T14:49:26;22.40;41.26
66962;HTU21D;53897;51.126;5.868;2024-01-30T14:51:51;22.42;41.22
66962;HTU21D;53897;51.126;5.868;2024-01-30T14:54:17;22.42;41.23
66962;HTU21D;53897;51.126;5.868;2024-01-30T14:56:44;22.41;41.29
66962;HTU21D;53897;51.126;5.868;2024-01-30T14:59:10;22.41;41.33
66962;HTU21D;53897;51.126;5.868;2024-01-30T15:01:36;22.39;41.42
66962;HTU21D;53897;51.126;5.868;2024-01-30T15:04:02;22.37;41.49
66962;HTU21D;53897;51.126;5.868;2024-01-30T15:06:28;22.35;41.56
66962;HTU21D;53897;51.126;5.868;2024-01-30T15:08:54;22.32;41.62
66962;HTU21D;53897;51.126;5.868;2024-01-30T15:11:20;22.31;41.65
66962;HTU21D;53897;51.126;5.868;2024-01-30T15:13:46;22.31;41.60
66962;HTU21D;53897;51.126;5.868;2024-01-30T15:16:12;22.31;41.58